sensor_id;sensor_type;location;lat;lon;timestamp;P1;durP1;ratioP1;P2;durP2;ratioP2
5754;SDS011;2902;42.130;24.732;2023-07-31T00:01:38;1.20;;;1.17;;
5754;SDS011;2902;42.130;24.732;2023-07-31T00:04:05;1.40;;;1.30;;
5754;SDS011;2902;42.130;24.732;2023-07-31T00:06:32;2.50;;;1.63;;
5754;SDS011;2902;42.130;24.732;2023-07-31T00:08:58;3.73;;;1.50;;
5754;SDS011;2902;42.130;24.732;2023-07-31T00:11:26;1.93;;;1.20;;
5754;SDS011;2902;42.130;24.732;2023-07-31T00:13:53;1.60;;;1.50;;
5754;SDS011;2902;42.130;24.732;2023-07-31T00:16:20;1.53;;;1.40;;
5754;SDS011;2902;42.130;24.732;2023-07-31T00:18:46;1.20;;;1.20;;
5754;SDS011;2902;42.130;24.732;2023-07-31T00:21:13;2.40;;;1.70;;
5754;SDS011;2902;42.130;24.732;2023-07-31T00:23:40;14.47;;;2.70;;
5754;SDS011;2902;42.130;24.732;2023-07-31T00:26:06;4.63;;;1.77;;
5754;SDS011;2902;42.130;24.732;2023-07-31T00:28:34;2.20;;;1.60;;
5754;SDS011;2902;42.130;24.732;2023-07-31T00:31:01;3.07;;;1.33;;
5754;SDS011;2902;42.130;24.732;2023-07-31T00:33:31;1.60;;;1.50;;
5754;SDS011;2902;42.130;24.732;2023-07-31T00:35:58;1.40;;;1.30;;
5754;SDS011;2902;42.130;24.732;2023-07-31T00:38:24;3.63;;;1.90;;
5754;SDS011;2902;42.130;24.732;2023-07-31T00:40:51;1.10;;;1.10;;
5754;SDS011;2902;42.130;24.732;2023-07-31T00:43:18;1.50;;;1.20;;
5754;SDS011;2902;42.130;24.732;2023-07-31T00:45:46;3.33;;;1.40;;
5754;SDS011;2902;42.130;24.732;2023-07-31T00:48:13;1.30;;;1.20;;
5754;SDS011;2902;42.130;24.732;2023-07-31T00:50:39;1.23;;;1.23;;
5754;SDS011;2902;42.130;24.732;2023-07-31T00:53:06;2.53;;;1.40;;
5754;SDS011;2902;42.130;24.732;2023-07-31T00:55:33;5.57;;;1.60;;
5754;SDS011;2902;42.130;24.732;2023-07-31T00:58:00;5.10;;;1.43;;
5754;SDS011;2902;42.130;24.732;2023-07-31T01:00:26;1.90;;;1.53;;
5754;SDS011;2902;42.130;24.732;2023-07-31T01:02:54;2.97;;;1.80;;
5754;SDS011;2902;42.130;24.732;2023-07-31T01:05:23;1.90;;;1.50;;
5754;SDS011;2902;42.130;24.732;2023-07-31T01:07:55;4.40;;;1.90;;
5754;SDS011;2902;42.130;24.732;2023-07-31T01:10:30;3.10;;;1.97;;
5754;SDS011;2902;42.130;24.732;2023-07-31T01:13:03;3.93;;;1.97;;
5754;SDS011;2902;42.130;24.732;2023-07-31T01:15:30;2.10;;;2.00;;
5754;SDS011;2902;42.130;24.732;2023-07-31T01:17:58;3.23;;;2.37;;
5754;SDS011;2902;42.130;24.732;2023-07-31T01:20:25;2.10;;;2.00;;
5754;SDS011;2902;42.130;24.732;2023-07-31T01:23:12;4.30;;;2.93;;
5754;SDS011;2902;42.130;24.732;2023-07-31T01:26:04;3.23;;;3.00;;
5754;SDS011;2902;42.130;24.732;2023-07-31T01:28:40;3.63;;;2.80;;
5754;SDS011;2902;42.130;24.732;2023-07-31T01:31:14;3.27;;;3.07;;
5754;SDS011;2902;42.130;24.732;2023-07-31T01:33:46;4.20;;;2.67;;
5754;SDS011;2902;42.130;24.732;2023-07-31T01:36:14;4.27;;;2.80;;
5754;SDS011;2902;42.130;24.732;2023-07-31T01:38:41;2.90;;;2.80;;
5754;SDS011;2902;42.130;24.732;2023-07-31T01:41:09;4.67;;;2.80;;
5754;SDS011;2902;42.130;24.732;2023-07-31T01:43:35;3.70;;;3.07;;
5754;SDS011;2902;42.130;24.732;2023-07-31T01:46:02;5.40;;;3.55;;
5754;SDS011;2902;42.130;24.732;2023-07-31T01:48:29;3.60;;;3.20;;
5754;SDS011;2902;42.130;24.732;2023-07-31T01:51:00;4.10;;;2.97;;
5754;SDS011;2902;42.130;24.732;2023-07-31T01:53:27;5.93;;;3.40;;
5754;SDS011;2902;42.130;24.732;2023-07-31T01:55:54;6.67;;;3.30;;
5754;SDS011;2902;42.130;24.732;2023-07-31T01:58:22;8.33;;;3.73;;
5754;SDS011;2902;42.130;24.732;2023-07-31T02:00:49;8.77;;;4.67;;
5754;SDS011;2902;42.130;24.732;2023-07-31T02:03:15;3.97;;;3.67;;
5754;SDS011;2902;42.130;24.732;2023-07-31T02:05:44;10.87;;;5.20;;
5754;SDS011;2902;42.130;24.732;2023-07-31T02:08:11;14.83;;;6.40;;
5754;SDS011;2902;42.130;24.732;2023-07-31T02:10:37;8.33;;;5.57;;
5754;SDS011;2902;42.130;24.732;2023-07-31T02:13:04;7.23;;;6.10;;
5754;SDS011;2902;42.130;24.732;2023-07-31T02:15:32;7.33;;;5.53;;
5754;SDS011;2902;42.130;24.732;2023-07-31T02:17:59;6.07;;;4.27;;
5754;SDS011;2902;42.130;24.732;2023-07-31T02:20:26;5.60;;;4.13;;
5754;SDS011;2902;42.130;24.732;2023-07-31T02:22:52;3.67;;;3.30;;
5754;SDS011;2902;42.130;24.732;2023-07-31T02:25:19;3.00;;;2.80;;
5754;SDS011;2902;42.130;24.732;2023-07-31T02:27:46;5.53;;;2.73;;
5754;SDS011;2902;42.130;24.732;2023-07-31T02:30:12;3.97;;;2.53;;
5754;SDS011;2902;42.130;24.732;2023-07-31T02:32:40;3.30;;;2.70;;
5754;SDS011;2902;42.130;24.732;2023-07-31T02:35:07;4.43;;;2.97;;
5754;SDS011;2902;42.130;24.732;2023-07-31T02:37:34;2.80;;;2.60;;
5754;SDS011;2902;42.130;24.732;2023-07-31T02:40:01;4.77;;;2.90;;
5754;SDS011;2902;42.130;24.732;2023-07-31T02:42:28;5.37;;;3.17;;
5754;SDS011;2902;42.130;24.732;2023-07-31T02:44:54;4.93;;;3.47;;
5754;SDS011;2902;42.130;24.732;2023-07-31T02:47:21;3.80;;;3.50;;
5754;SDS011;2902;42.130;24.732;2023-07-31T02:49:49;3.77;;;3.57;;
5754;SDS011;2902;42.130;24.732;2023-07-31T02:52:16;7.37;;;4.00;;
5754;SDS011;2902;42.130;24.732;2023-07-31T02:54:43;5.47;;;3.60;;
5754;SDS011;2902;42.130;24.732;2023-07-31T02:57:09;3.60;;;3.37;;
5754;SDS011;2902;42.130;24.732;2023-07-31T02:59:36;12.50;;;4.03;;
5754;SDS011;2902;42.130;24.732;2023-07-31T03:02:03;4.23;;;3.77;;
5754;SDS011;2902;42.130;24.732;2023-07-31T03:04:30;3.80;;;3.60;;
5754;SDS011;2902;42.130;24.732;2023-07-31T03:06:58;4.03;;;3.73;;
5754;SDS011;2902;42.130;24.732;2023-07-31T03:09:24;3.70;;;3.43;;
5754;SDS011;2902;42.130;24.732;2023-07-31T03:11:51;4.30;;;3.90;;
5754;SDS011;2902;42.130;24.732;2023-07-31T03:14:18;4.93;;;3.50;;
5754;SDS011;2902;42.130;24.732;2023-07-31T03:16:44;15.53;;;4.47;;
5754;SDS011;2902;42.130;24.732;2023-07-31T03:19:11;4.17;;;3.40;;
5754;SDS011;2902;42.130;24.732;2023-07-31T03:21:38;10.20;;;4.97;;
5754;SDS011;2902;42.130;24.732;2023-07-31T03:24:06;4.70;;;3.77;;
5754;SDS011;2902;42.130;24.732;2023-07-31T03:26:33;5.70;;;4.17;;
5754;SDS011;2902;42.130;24.732;2023-07-31T03:29:00;4.10;;;3.90;;
5754;SDS011;2902;42.130;24.732;2023-07-31T03:31:27;5.03;;;4.73;;
5754;SDS011;2902;42.130;24.732;2023-07-31T03:33:53;4.67;;;4.47;;
5754;SDS011;2902;42.130;24.732;2023-07-31T03:36:20;5.70;;;5.20;;
5754;SDS011;2902;42.130;24.732;2023-07-31T03:38:47;5.73;;;5.23;;
5754;SDS011;2902;42.130;24.732;2023-07-31T03:41:15;6.57;;;5.77;;
5754;SDS011;2902;42.130;24.732;2023-07-31T03:43:41;6.07;;;5.70;;
5754;SDS011;2902;42.130;24.732;2023-07-31T03:46:08;7.70;;;7.10;;
5754;SDS011;2902;42.130;24.732;2023-07-31T03:48:35;7.17;;;6.67;;
5754;SDS011;2902;42.130;24.732;2023-07-31T03:51:01;6.73;;;6.23;;
5754;SDS011;2902;42.130;24.732;2023-07-31T03:53:28;14.43;;;7.87;;
5754;SDS011;2902;42.130;24.732;2023-07-31T03:55:55;13.17;;;7.30;;
5754;SDS011;2902;42.130;24.732;2023-07-31T03:58:23;7.53;;;6.70;;
5754;SDS011;2902;42.130;24.732;2023-07-31T04:00:50;9.37;;;7.17;;
5754;SDS011;2902;42.130;24.732;2023-07-31T04:03:16;8.43;;;7.63;;
5754;SDS011;2902;42.130;24.732;2023-07-31T04:05:43;8.93;;;8.03;;
5754;SDS011;2902;42.130;24.732;2023-07-31T04:08:10;8.60;;;7.13;;
5754;SDS011;2902;42.130;24.732;2023-07-31T04:10:37;6.80;;;6.30;;
5754;SDS011;2902;42.130;24.732;2023-07-31T04:13:03;9.23;;;6.93;;
5754;SDS011;2902;42.130;24.732;2023-07-31T04:15:31;7.10;;;6.53;;
5754;SDS011;2902;42.130;24.732;2023-07-31T04:17:58;6.90;;;6.43;;
5754;SDS011;2902;42.130;24.732;2023-07-31T04:20:25;7.50;;;6.90;;
5754;SDS011;2902;42.130;24.732;2023-07-31T04:22:51;6.27;;;5.77;;
5754;SDS011;2902;42.130;24.732;2023-07-31T04:25:18;6.10;;;5.60;;
5754;SDS011;2902;42.130;24.732;2023-07-31T04:27:45;6.53;;;6.03;;
5754;SDS011;2902;42.130;24.732;2023-07-31T04:30:11;6.63;;;6.23;;
5754;SDS011;2902;42.130;24.732;2023-07-31T04:32:39;6.17;;;5.80;;
5754;SDS011;2902;42.130;24.732;2023-07-31T04:35:06;6.30;;;5.90;;
5754;SDS011;2902;42.130;24.732;2023-07-31T04:37:33;6.10;;;5.70;;
5754;SDS011;2902;42.130;24.732;2023-07-31T04:40:00;6.30;;;5.80;;
5754;SDS011;2902;42.130;24.732;2023-07-31T04:42:27;6.03;;;5.63;;
5754;SDS011;2902;42.130;24.732;2023-07-31T04:44:53;6.50;;;6.00;;
5754;SDS011;2902;42.130;24.732;2023-07-31T04:47:20;5.80;;;5.40;;
5754;SDS011;2902;42.130;24.732;2023-07-31T04:49:48;6.47;;;6.07;;
5754;SDS011;2902;42.130;24.732;2023-07-31T04:52:15;6.50;;;5.60;;
5754;SDS011;2902;42.130;24.732;2023-07-31T04:54:41;6.27;;;5.87;;
5754;SDS011;2902;42.130;24.732;2023-07-31T04:57:08;5.90;;;5.50;;
5754;SDS011;2902;42.130;24.732;2023-07-31T04:59:35;6.83;;;6.30;;
5754;SDS011;2902;42.130;24.732;2023-07-31T05:02:02;9.20;;;6.30;;
5754;SDS011;2902;42.130;24.732;2023-07-31T05:04:28;5.63;;;5.13;;
5754;SDS011;2902;42.130;24.732;2023-07-31T05:06:57;6.20;;;5.77;;
5754;SDS011;2902;42.130;24.732;2023-07-31T05:09:23;5.47;;;5.07;;
5754;SDS011;2902;42.130;24.732;2023-07-31T05:11:50;5.90;;;5.27;;
5754;SDS011;2902;42.130;24.732;2023-07-31T05:14:16;5.70;;;5.20;;
5754;SDS011;2902;42.130;24.732;2023-07-31T05:16:43;7.00;;;5.17;;
5754;SDS011;2902;42.130;24.732;2023-07-31T05:19:10;5.03;;;4.70;;
5754;SDS011;2902;42.130;24.732;2023-07-31T05:21:36;6.07;;;5.57;;
5754;SDS011;2902;42.130;24.732;2023-07-31T05:24:04;5.43;;;5.00;;
5754;SDS011;2902;42.130;24.732;2023-07-31T05:26:31;4.63;;;4.23;;
5754;SDS011;2902;42.130;24.732;2023-07-31T05:28:58;8.70;;;4.90;;
5754;SDS011;2902;42.130;24.732;2023-07-31T05:31:24;5.33;;;4.37;;
5754;SDS011;2902;42.130;24.732;2023-07-31T05:33:51;7.43;;;4.63;;
5754;SDS011;2902;42.130;24.732;2023-07-31T05:36:18;9.80;;;5.10;;
5754;SDS011;2902;42.130;24.732;2023-07-31T05:38:44;9.43;;;5.00;;
5754;SDS011;2902;42.130;24.732;2023-07-31T05:41:13;12.87;;;4.70;;
5754;SDS011;2902;42.130;24.732;2023-07-31T05:43:39;5.93;;;3.73;;
5754;SDS011;2902;42.130;24.732;2023-07-31T05:46:06;5.00;;;4.53;;
5754;SDS011;2902;42.130;24.732;2023-07-31T05:48:34;15.87;;;4.33;;
5754;SDS011;2902;42.130;24.732;2023-07-31T05:51:01;8.57;;;5.17;;
5754;SDS011;2902;42.130;24.732;2023-07-31T05:53:27;9.40;;;5.67;;
5754;SDS011;2902;42.130;24.732;2023-07-31T05:55:54;5.53;;;5.13;;
5754;SDS011;2902;42.130;24.732;2023-07-31T05:58:22;6.63;;;5.20;;
5754;SDS011;2902;42.130;24.732;2023-07-31T06:00:49;5.63;;;5.07;;
5754;SDS011;2902;42.130;24.732;2023-07-31T06:03:16;6.17;;;5.57;;
5754;SDS011;2902;42.130;24.732;2023-07-31T06:05:43;5.40;;;4.80;;
5754;SDS011;2902;42.130;24.732;2023-07-31T06:08:09;5.77;;;5.23;;
5754;SDS011;2902;42.130;24.732;2023-07-31T06:10:36;7.70;;;5.63;;
5754;SDS011;2902;42.130;24.732;2023-07-31T06:13:03;5.17;;;4.63;;
5754;SDS011;2902;42.130;24.732;2023-07-31T06:15:31;6.17;;;5.70;;
5754;SDS011;2902;42.130;24.732;2023-07-31T06:17:58;5.77;;;5.30;;
5754;SDS011;2902;42.130;24.732;2023-07-31T06:20:27;23.63;;;7.13;;
5754;SDS011;2902;42.130;24.732;2023-07-31T06:22:54;7.27;;;6.53;;
5754;SDS011;2902;42.130;24.732;2023-07-31T06:25:20;8.90;;;8.10;;
5754;SDS011;2902;42.130;24.732;2023-07-31T06:27:47;7.47;;;6.87;;
5754;SDS011;2902;42.130;24.732;2023-07-31T06:30:14;8.10;;;7.50;;
5754;SDS011;2902;42.130;24.732;2023-07-31T06:32:42;8.43;;;7.70;;
5754;SDS011;2902;42.130;24.732;2023-07-31T06:35:09;8.20;;;7.70;;
5754;SDS011;2902;42.130;24.732;2023-07-31T06:37:35;7.97;;;7.37;;
5754;SDS011;2902;42.130;24.732;2023-07-31T06:40:02;18.37;;;13.87;;
5754;SDS011;2902;42.130;24.732;2023-07-31T06:42:30;8.10;;;7.33;;
5754;SDS011;2902;42.130;24.732;2023-07-31T06:44:57;14.60;;;7.73;;
5754;SDS011;2902;42.130;24.732;2023-07-31T06:47:24;7.27;;;6.70;;
5754;SDS011;2902;42.130;24.732;2023-07-31T06:49:52;8.80;;;8.13;;
5754;SDS011;2902;42.130;24.732;2023-07-31T06:52:18;8.77;;;8.07;;
5754;SDS011;2902;42.130;24.732;2023-07-31T06:54:57;8.90;;;8.30;;
5754;SDS011;2902;42.130;24.732;2023-07-31T06:57:27;9.90;;;9.03;;
5754;SDS011;2902;42.130;24.732;2023-07-31T06:59:54;17.13;;;8.50;;
5754;SDS011;2902;42.130;24.732;2023-07-31T07:02:20;9.63;;;8.27;;
5754;SDS011;2902;42.130;24.732;2023-07-31T07:04:48;14.30;;;8.63;;
5754;SDS011;2902;42.130;24.732;2023-07-31T07:07:17;8.27;;;7.67;;
5754;SDS011;2902;42.130;24.732;2023-07-31T07:09:44;12.17;;;8.20;;
5754;SDS011;2902;42.130;24.732;2023-07-31T07:12:11;17.00;;;9.07;;
5754;SDS011;2902;42.130;24.732;2023-07-31T07:14:37;8.73;;;8.10;;
5754;SDS011;2902;42.130;24.732;2023-07-31T07:17:04;9.30;;;8.60;;
5754;SDS011;2902;42.130;24.732;2023-07-31T07:19:31;16.87;;;9.60;;
5754;SDS011;2902;42.130;24.732;2023-07-31T07:21:58;23.23;;;9.90;;
5754;SDS011;2902;42.130;24.732;2023-07-31T07:24:28;9.50;;;8.97;;
5754;SDS011;2902;42.130;24.732;2023-07-31T07:26:55;17.10;;;10.03;;
5754;SDS011;2902;42.130;24.732;2023-07-31T07:29:21;11.60;;;10.07;;
5754;SDS011;2902;42.130;24.732;2023-07-31T07:31:48;10.43;;;9.70;;
5754;SDS011;2902;42.130;24.732;2023-07-31T07:34:15;10.40;;;9.47;;
5754;SDS011;2902;42.130;24.732;2023-07-31T07:36:41;10.13;;;9.53;;
5754;SDS011;2902;42.130;24.732;2023-07-31T07:39:09;11.17;;;9.37;;
5754;SDS011;2902;42.130;24.732;2023-07-31T07:41:38;11.50;;;10.70;;
5754;SDS011;2902;42.130;24.732;2023-07-31T07:44:04;11.67;;;10.97;;
5754;SDS011;2902;42.130;24.732;2023-07-31T07:46:31;13.33;;;12.40;;
5754;SDS011;2902;42.130;24.732;2023-07-31T07:48:58;13.33;;;12.23;;
5754;SDS011;2902;42.130;24.732;2023-07-31T07:51:24;14.47;;;12.97;;
5754;SDS011;2902;42.130;24.732;2023-07-31T07:53:51;12.77;;;11.87;;
5754;SDS011;2902;42.130;24.732;2023-07-31T07:56:18;17.70;;;12.63;;
5754;SDS011;2902;42.130;24.732;2023-07-31T07:58:46;14.63;;;13.17;;
5754;SDS011;2902;42.130;24.732;2023-07-31T08:01:14;12.07;;;11.27;;
5754;SDS011;2902;42.130;24.732;2023-07-31T08:03:41;11.50;;;10.80;;
5754;SDS011;2902;42.130;24.732;2023-07-31T08:06:08;11.73;;;10.60;;
5754;SDS011;2902;42.130;24.732;2023-07-31T08:08:35;10.60;;;9.70;;
5754;SDS011;2902;42.130;24.732;2023-07-31T08:11:02;11.10;;;10.30;;
5754;SDS011;2902;42.130;24.732;2023-07-31T08:13:29;11.75;;;10.70;;
5754;SDS011;2902;42.130;24.732;2023-07-31T08:15:57;10.98;;;10.25;;
5754;SDS011;2902;42.130;24.732;2023-07-31T08:18:24;10.35;;;8.88;;
5754;SDS011;2902;42.130;24.732;2023-07-31T08:20:50;11.38;;;10.65;;
5754;SDS011;2902;42.130;24.732;2023-07-31T08:23:17;15.48;;;14.00;;
5754;SDS011;2902;42.130;24.732;2023-07-31T08:25:44;15.10;;;13.77;;
5754;SDS011;2902;42.130;24.732;2023-07-31T08:28:11;14.97;;;13.83;;
5754;SDS011;2902;42.130;24.732;2023-07-31T08:30:38;14.20;;;13.10;;
5754;SDS011;2902;42.130;24.732;2023-07-31T08:33:06;16.53;;;13.60;;
5754;SDS011;2902;42.130;24.732;2023-07-31T08:35:32;14.77;;;13.53;;
5754;SDS011;2902;42.130;24.732;2023-07-31T08:37:59;13.53;;;12.20;;
5754;SDS011;2902;42.130;24.732;2023-07-31T08:40:26;14.70;;;11.87;;
5754;SDS011;2902;42.130;24.732;2023-07-31T08:42:54;19.20;;;11.30;;
5754;SDS011;2902;42.130;24.732;2023-07-31T08:45:27;12.43;;;11.43;;
5754;SDS011;2902;42.130;24.732;2023-07-31T08:47:54;12.77;;;11.73;;
5754;SDS011;2902;42.130;24.732;2023-07-31T08:50:23;20.63;;;11.50;;
5754;SDS011;2902;42.130;24.732;2023-07-31T08:52:50;11.60;;;10.70;;
5754;SDS011;2902;42.130;24.732;2023-07-31T08:55:18;11.18;;;10.32;;
5754;SDS011;2902;42.130;24.732;2023-07-31T08:57:48;30.43;;;11.53;;
5754;SDS011;2902;42.130;24.732;2023-07-31T09:00:17;10.85;;;10.15;;
5754;SDS011;2902;42.130;24.732;2023-07-31T09:02:46;14.05;;;11.43;;
5754;SDS011;2902;42.130;24.732;2023-07-31T09:05:18;10.73;;;10.07;;
5754;SDS011;2902;42.130;24.732;2023-07-31T09:07:47;9.63;;;9.02;;
5754;SDS011;2902;42.130;24.732;2023-07-31T09:10:16;9.45;;;8.75;;
5754;SDS011;2902;42.130;24.732;2023-07-31T09:12:43;11.90;;;11.20;;
5754;SDS011;2902;42.130;24.732;2023-07-31T09:15:10;16.58;;;10.10;;
5754;SDS011;2902;42.130;24.732;2023-07-31T09:17:37;11.75;;;10.60;;
5754;SDS011;2902;42.130;24.732;2023-07-31T09:20:12;10.50;;;9.52;;
5754;SDS011;2902;42.130;24.732;2023-07-31T09:22:40;10.27;;;9.57;;
5754;SDS011;2902;42.130;24.732;2023-07-31T09:25:17;10.65;;;9.75;;
5754;SDS011;2902;42.130;24.732;2023-07-31T09:27:48;13.30;;;12.10;;
5754;SDS011;2902;42.130;24.732;2023-07-31T09:30:16;20.60;;;11.38;;
5754;SDS011;2902;42.130;24.732;2023-07-31T09:32:44;13.85;;;12.40;;
5754;SDS011;2902;42.130;24.732;2023-07-31T09:35:21;11.90;;;11.15;;
5754;SDS011;2902;42.130;24.732;2023-07-31T09:37:50;13.57;;;12.10;;
5754;SDS011;2902;42.130;24.732;2023-07-31T09:40:28;10.88;;;10.00;;
5754;SDS011;2902;42.130;24.732;2023-07-31T09:42:56;12.13;;;10.70;;
5754;SDS011;2902;42.130;24.732;2023-07-31T09:45:23;11.55;;;10.55;;
5754;SDS011;2902;42.130;24.732;2023-07-31T09:47:50;11.25;;;10.45;;
5754;SDS011;2902;42.130;24.732;2023-07-31T09:50:17;10.98;;;10.18;;
5754;SDS011;2902;42.130;24.732;2023-07-31T09:52:48;11.80;;;10.55;;
5754;SDS011;2902;42.130;24.732;2023-07-31T09:55:15;10.73;;;9.82;;
5754;SDS011;2902;42.130;24.732;2023-07-31T09:57:44;12.18;;;10.50;;
5754;SDS011;2902;42.130;24.732;2023-07-31T10:00:12;9.40;;;8.80;;
5754;SDS011;2902;42.130;24.732;2023-07-31T10:02:40;9.95;;;9.40;;
5754;SDS011;2902;42.130;24.732;2023-07-31T10:05:07;24.10;;;10.02;;
5754;SDS011;2902;42.130;24.732;2023-07-31T10:07:36;10.60;;;9.10;;
5754;SDS011;2902;42.130;24.732;2023-07-31T10:10:06;10.73;;;9.68;;
5754;SDS011;2902;42.130;24.732;2023-07-31T10:12:34;9.60;;;9.10;;
5754;SDS011;2902;42.130;24.732;2023-07-31T10:15:04;9.63;;;8.77;;
5754;SDS011;2902;42.130;24.732;2023-07-31T10:17:32;9.68;;;8.82;;
5754;SDS011;2902;42.130;24.732;2023-07-31T10:20:01;8.25;;;7.70;;
5754;SDS011;2902;42.130;24.732;2023-07-31T10:22:30;9.65;;;8.18;;
5754;SDS011;2902;42.130;24.732;2023-07-31T10:24:57;10.48;;;9.30;;
5754;SDS011;2902;42.130;24.732;2023-07-31T10:27:25;9.30;;;8.60;;
5754;SDS011;2902;42.130;24.732;2023-07-31T10:29:52;11.00;;;8.60;;
5754;SDS011;2902;42.130;24.732;2023-07-31T10:32:22;8.63;;;7.88;;
5754;SDS011;2902;42.130;24.732;2023-07-31T10:34:51;10.43;;;8.52;;
5754;SDS011;2902;42.130;24.732;2023-07-31T10:37:22;8.70;;;8.30;;
5754;SDS011;2902;42.130;24.732;2023-07-31T10:39:56;9.63;;;8.48;;
5754;SDS011;2902;42.130;24.732;2023-07-31T10:42:27;9.40;;;8.52;;
5754;SDS011;2902;42.130;24.732;2023-07-31T10:44:57;8.65;;;8.15;;
5754;SDS011;2902;42.130;24.732;2023-07-31T10:47:25;9.57;;;8.98;;
5754;SDS011;2902;42.130;24.732;2023-07-31T10:49:52;9.20;;;8.50;;
5754;SDS011;2902;42.130;24.732;2023-07-31T10:52:19;8.38;;;7.88;;
5754;SDS011;2902;42.130;24.732;2023-07-31T10:54:49;9.25;;;8.52;;
5754;SDS011;2902;42.130;24.732;2023-07-31T10:57:19;9.50;;;7.72;;
5754;SDS011;2902;42.130;24.732;2023-07-31T10:59:47;7.20;;;6.63;;
5754;SDS011;2902;42.130;24.732;2023-07-31T11:02:25;7.68;;;7.07;;
5754;SDS011;2902;42.130;24.732;2023-07-31T11:05:07;10.23;;;7.25;;
5754;SDS011;2902;42.130;24.732;2023-07-31T11:07:47;14.90;;;7.88;;
5754;SDS011;2902;42.130;24.732;2023-07-31T11:10:18;7.28;;;6.57;;
5754;SDS011;2902;42.130;24.732;2023-07-31T11:12:45;6.40;;;6.13;;
5754;SDS011;2902;42.130;24.732;2023-07-31T11:15:12;6.20;;;5.90;;
5754;SDS011;2902;42.130;24.732;2023-07-31T11:17:40;6.47;;;5.97;;
5754;SDS011;2902;42.130;24.732;2023-07-31T11:20:07;6.07;;;5.78;;
5754;SDS011;2902;42.130;24.732;2023-07-31T11:22:35;11.07;;;6.63;;
5754;SDS011;2902;42.130;24.732;2023-07-31T11:25:02;6.85;;;6.32;;
5754;SDS011;2902;42.130;24.732;2023-07-31T11:27:29;6.30;;;5.90;;
5754;SDS011;2902;42.130;24.732;2023-07-31T11:30:00;7.05;;;6.00;;
5754;SDS011;2902;42.130;24.732;2023-07-31T11:32:27;7.32;;;6.72;;
5754;SDS011;2902;42.130;24.732;2023-07-31T11:34:55;6.43;;;6.05;;
5754;SDS011;2902;42.130;24.732;2023-07-31T11:37:22;6.87;;;6.37;;
5754;SDS011;2902;42.130;24.732;2023-07-31T11:39:58;7.03;;;6.40;;
5754;SDS011;2902;42.130;24.732;2023-07-31T11:42:26;6.10;;;5.77;;
5754;SDS011;2902;42.130;24.732;2023-07-31T11:44:55;6.37;;;6.07;;
5754;SDS011;2902;42.130;24.732;2023-07-31T11:47:21;7.20;;;6.63;;
5754;SDS011;2902;42.130;24.732;2023-07-31T11:49:48;6.83;;;6.30;;
5754;SDS011;2902;42.130;24.732;2023-07-31T11:52:17;6.20;;;5.80;;
5754;SDS011;2902;42.130;24.732;2023-07-31T11:54:45;7.47;;;6.63;;
5754;SDS011;2902;42.130;24.732;2023-07-31T11:57:12;7.07;;;6.67;;
5754;SDS011;2902;42.130;24.732;2023-07-31T11:59:39;6.93;;;6.53;;
5754;SDS011;2902;42.130;24.732;2023-07-31T12:02:06;7.70;;;7.20;;
5754;SDS011;2902;42.130;24.732;2023-07-31T12:04:33;7.70;;;7.30;;
5754;SDS011;2902;42.130;24.732;2023-07-31T12:07:00;8.03;;;7.30;;
5754;SDS011;2902;42.130;24.732;2023-07-31T12:09:28;7.23;;;6.70;;
5754;SDS011;2902;42.130;24.732;2023-07-31T12:11:55;9.57;;;7.40;;
5754;SDS011;2902;42.130;24.732;2023-07-31T12:14:22;7.23;;;6.73;;
5754;SDS011;2902;42.130;24.732;2023-07-31T12:16:54;7.53;;;7.00;;
5754;SDS011;2902;42.130;24.732;2023-07-31T12:19:22;8.73;;;8.13;;
5754;SDS011;2902;42.130;24.732;2023-07-31T12:21:48;8.30;;;7.63;;
5754;SDS011;2902;42.130;24.732;2023-07-31T12:24:17;7.93;;;7.53;;
5754;SDS011;2902;42.130;24.732;2023-07-31T12:26:46;7.80;;;7.40;;
5754;SDS011;2902;42.130;24.732;2023-07-31T12:29:14;8.00;;;7.43;;
5754;SDS011;2902;42.130;24.732;2023-07-31T12:31:41;8.33;;;7.83;;
5754;SDS011;2902;42.130;24.732;2023-07-31T12:34:15;7.57;;;7.17;;
5754;SDS011;2902;42.130;24.732;2023-07-31T12:36:43;6.57;;;6.27;;
5754;SDS011;2902;42.130;24.732;2023-07-31T12:39:10;6.00;;;5.70;;
5754;SDS011;2902;42.130;24.732;2023-07-31T12:41:37;5.73;;;5.33;;
5754;SDS011;2902;42.130;24.732;2023-07-31T12:44:05;5.03;;;4.83;;
5754;SDS011;2902;42.130;24.732;2023-07-31T12:46:32;5.30;;;4.90;;
5754;SDS011;2902;42.130;24.732;2023-07-31T12:48:58;5.30;;;5.00;;
5754;SDS011;2902;42.130;24.732;2023-07-31T12:51:25;4.43;;;4.13;;
5754;SDS011;2902;42.130;24.732;2023-07-31T12:53:52;4.77;;;4.53;;
5754;SDS011;2902;42.130;24.732;2023-07-31T12:56:18;4.40;;;4.20;;
5754;SDS011;2902;42.130;24.732;2023-07-31T12:58:45;5.40;;;4.30;;
5754;SDS011;2902;42.130;24.732;2023-07-31T13:01:13;4.50;;;4.30;;
5754;SDS011;2902;42.130;24.732;2023-07-31T13:03:40;4.80;;;4.50;;
5754;SDS011;2902;42.130;24.732;2023-07-31T13:06:06;4.77;;;4.47;;
5754;SDS011;2902;42.130;24.732;2023-07-31T13:08:33;5.10;;;4.73;;
5754;SDS011;2902;42.130;24.732;2023-07-31T13:11:00;4.43;;;4.23;;
5754;SDS011;2902;42.130;24.732;2023-07-31T13:13:27;5.37;;;4.97;;
5754;SDS011;2902;42.130;24.732;2023-07-31T13:15:54;4.57;;;4.27;;
5754;SDS011;2902;42.130;24.732;2023-07-31T13:18:23;6.70;;;6.20;;
5754;SDS011;2902;42.130;24.732;2023-07-31T13:20:49;7.53;;;7.03;;
5754;SDS011;2902;42.130;24.732;2023-07-31T13:23:16;7.10;;;6.53;;
5754;SDS011;2902;42.130;24.732;2023-07-31T13:25:42;7.10;;;6.80;;
5754;SDS011;2902;42.130;24.732;2023-07-31T13:28:09;6.77;;;6.33;;
5754;SDS011;2902;42.130;24.732;2023-07-31T13:30:36;7.30;;;6.80;;
5754;SDS011;2902;42.130;24.732;2023-07-31T13:33:02;7.00;;;6.50;;
5754;SDS011;2902;42.130;24.732;2023-07-31T13:35:31;6.67;;;6.30;;
5754;SDS011;2902;42.130;24.732;2023-07-31T13:37:57;6.80;;;6.50;;
5754;SDS011;2902;42.130;24.732;2023-07-31T13:40:24;6.43;;;6.13;;
5754;SDS011;2902;42.130;24.732;2023-07-31T13:42:51;7.40;;;6.80;;
5754;SDS011;2902;42.130;24.732;2023-07-31T13:45:19;6.83;;;6.43;;
5754;SDS011;2902;42.130;24.732;2023-07-31T13:47:46;6.63;;;6.33;;
5754;SDS011;2902;42.130;24.732;2023-07-31T13:50:12;7.20;;;6.80;;
5754;SDS011;2902;42.130;24.732;2023-07-31T13:52:40;6.93;;;6.60;;
5754;SDS011;2902;42.130;24.732;2023-07-31T13:55:07;7.40;;;7.10;;
5754;SDS011;2902;42.130;24.732;2023-07-31T13:57:34;7.33;;;6.90;;
5754;SDS011;2902;42.130;24.732;2023-07-31T14:00:01;7.27;;;6.77;;
5754;SDS011;2902;42.130;24.732;2023-07-31T14:02:27;6.50;;;6.20;;
5754;SDS011;2902;42.130;24.732;2023-07-31T14:04:54;6.67;;;6.30;;
5754;SDS011;2902;42.130;24.732;2023-07-31T14:07:21;6.73;;;6.23;;
5754;SDS011;2902;42.130;24.732;2023-07-31T14:09:49;6.73;;;6.37;;
5754;SDS011;2902;42.130;24.732;2023-07-31T14:12:16;6.67;;;6.27;;
5754;SDS011;2902;42.130;24.732;2023-07-31T14:14:42;5.97;;;5.67;;
5754;SDS011;2902;42.130;24.732;2023-07-31T14:17:09;6.30;;;6.00;;
5754;SDS011;2902;42.130;24.732;2023-07-31T14:19:36;6.23;;;5.93;;
5754;SDS011;2902;42.130;24.732;2023-07-31T14:22:03;6.57;;;6.07;;
5754;SDS011;2902;42.130;24.732;2023-07-31T14:24:30;6.27;;;5.77;;
5754;SDS011;2902;42.130;24.732;2023-07-31T14:26:58;6.60;;;6.30;;
5754;SDS011;2902;42.130;24.732;2023-07-31T14:29:24;6.83;;;6.13;;
5754;SDS011;2902;42.130;24.732;2023-07-31T14:31:51;6.00;;;5.70;;
5754;SDS011;2902;42.130;24.732;2023-07-31T14:34:18;6.40;;;6.00;;
5754;SDS011;2902;42.130;24.732;2023-07-31T14:36:44;6.77;;;6.37;;
5754;SDS011;2902;42.130;24.732;2023-07-31T14:39:11;6.70;;;6.10;;
5754;SDS011;2902;42.130;24.732;2023-07-31T14:41:38;7.23;;;6.73;;
5754;SDS011;2902;42.130;24.732;2023-07-31T14:44:06;6.40;;;6.00;;
5754;SDS011;2902;42.130;24.732;2023-07-31T14:46:32;6.80;;;6.40;;
5754;SDS011;2902;42.130;24.732;2023-07-31T14:48:59;6.43;;;6.07;;
5754;SDS011;2902;42.130;24.732;2023-07-31T14:51:26;6.40;;;5.90;;
5754;SDS011;2902;42.130;24.732;2023-07-31T14:53:52;5.80;;;5.53;;
5754;SDS011;2902;42.130;24.732;2023-07-31T14:56:19;6.33;;;6.03;;
5754;SDS011;2902;42.130;24.732;2023-07-31T14:58:46;7.10;;;6.70;;